Time;durP1;ratioP1;P1;durP2;ratioP2;P2;SDS_P1;SDS_P2;PMS_P1;PMS_P2;Temp;Humidity;BMP_temperature;BMP_pressure;BME280_temperature;BME280_humidity;BME280_pressure;Samples;Min_cycle;Max_cycle;Signal;HPM_P1;HPM_P2
2022/12/02 00:02:33;;;;;;;12.57;5.87;;;4.80;99.90;;;;;;5024918;28;20335;-86
2022/12/02 00:05:17;;;;;;;8.90;5.93;;;4.80;99.90;;;;;;4984968;28;20306;-90
2022/12/02 00:07:44;;;;;;;8.93;4.93;;;4.80;99.90;;;;;;5010311;28;20222;-86
2022/12/02 00:10:33;;;;;;;13.23;5.43;;;4.80;99.90;;;;;;5010465;28;20239;-87
2022/12/02 00:13:18;;;;;;;12.43;5.00;;;4.80;99.90;;;;;;5009293;28;20215;-86
2022/12/02 00:15:46;;;;;;;16.50;7.63;;;4.80;99.90;;;;;;5017393;28;20223;-88
2022/12/02 00:18:14;;;;;;;7.43;6.23;;;4.70;99.90;;;;;;5018948;28;20180;-90
2022/12/02 00:20:41;;;;;;;4.57;4.10;;;4.70;99.90;;;;;;5009689;28;20195;-88
2022/12/02 00:23:07;;;;;;;17.87;7.00;;;4.70;99.90;;;;;;5009057;28;20747;-88
2022/12/02 00:25:33;;;;;;;9.37;6.07;;;4.70;99.90;;;;;;5014984;28;20249;-88
2022/12/02 00:27:59;;;;;;;8.20;4.90;;;4.70;99.90;;;;;;5010281;28;20289;-87
2022/12/02 00:30:25;;;;;;;12.60;5.87;;;4.70;99.90;;;;;;5009986;28;21018;-89
2022/12/02 00:32:51;;;;;;;12.33;5.53;;;4.70;99.90;;;;;;5010128;28;20286;-89
2022/12/02 00:35:17;;;;;;;8.43;5.80;;;4.80;99.90;;;;;;5009875;28;20234;-87
2022/12/02 00:37:43;;;;;;;8.73;6.23;;;4.80;99.90;;;;;;5017312;28;20215;-89
2022/12/02 00:40:10;;;;;;;6.40;5.03;;;4.80;99.90;;;;;;5015280;28;20234;-87
2022/12/02 00:42:35;;;;;;;12.33;4.53;;;4.80;99.90;;;;;;5008267;28;20314;-87
2022/12/02 00:47:45;;;;;;;9.63;4.27;;;4.70;99.90;;;;;;5008155;28;20191;-86
2022/12/02 00:50:11;;;;;;;4.83;4.30;;;4.70;99.90;;;;;;5009018;28;20239;-87
2022/12/02 00:52:37;;;;;;;5.60;4.70;;;4.60;99.90;;;;;;5041333;28;20719;-86
2022/12/02 00:55:03;;;;;;;9.87;4.30;;;4.60;99.90;;;;;;5015483;28;20243;-87
2022/12/02 00:57:29;;;;;;;6.27;5.03;;;4.60;99.90;;;;;;5008840;28;20215;-88
2022/12/02 00:59:55;;;;;;;9.27;7.17;;;4.60;99.90;;;;;;4991588;28;20191;-86
2022/12/02 01:02:21;;;;;;;9.40;4.00;;;4.50;99.90;;;;;;5008358;28;20227;-87
2022/12/02 01:04:46;;;;;;;6.67;4.23;;;4.50;99.90;;;;;;5008250;28;20230;-88
2022/12/02 01:07:13;;;;;;;10.80;5.07;;;4.50;99.90;;;;;;5007686;28;20719;-87
2022/12/02 01:09:40;;;;;;;7.37;4.57;;;4.50;99.90;;;;;;5007381;28;20579;-88
2022/12/02 01:12:06;;;;;;;21.30;8.10;;;4.50;99.90;;;;;;5007633;28;20184;-88
2022/12/02 01:14:32;;;;;;;5.37;4.87;;;4.50;99.90;;;;;;5015713;28;20210;-90
2022/12/02 01:16:58;;;;;;;6.33;5.23;;;4.40;99.90;;;;;;4999013;28;20572;-87
2022/12/02 01:19:23;;;;;;;9.13;7.33;;;4.40;99.90;;;;;;5006412;28;20693;-84
2022/12/02 01:21:49;;;;;;;9.10;5.90;;;4.40;99.90;;;;;;5006568;28;20265;-86
2022/12/02 01:24:15;;;;;;;7.70;3.93;;;4.40;99.90;;;;;;5007381;28;20249;-88
2022/12/02 01:26:41;;;;;;;10.13;6.70;;;4.40;99.90;;;;;;5008034;28;20198;-85
2022/12/02 01:29:06;;;;;;;6.30;4.17;;;4.40;99.90;;;;;;5006047;28;20693;-88
2022/12/02 01:31:33;;;;;;;7.40;4.60;;;4.30;99.90;;;;;;4997953;28;20575;-86
2022/12/02 01:33:58;;;;;;;5.27;4.77;;;4.30;99.90;;;;;;5005491;28;20219;-89
2022/12/02 01:36:24;;;;;;;6.10;5.47;;;4.30;99.90;;;;;;5005546;28;20226;-85
2022/12/02 01:38:50;;;;;;;11.40;6.57;;;4.20;99.90;;;;;;5014895;28;20199;-84
2022/12/02 01:41:16;;;;;;;8.17;7.40;;;4.20;99.90;;;;;;5038074;28;20247;-87
2022/12/02 01:43:42;;;;;;;18.20;5.47;;;4.20;99.90;;;;;;5021912;28;20230;-84
2022/12/02 01:46:08;;;;;;;10.07;6.37;;;4.20;99.90;;;;;;4998463;28;20211;-88
2022/12/02 01:48:35;;;;;;;7.20;5.00;;;4.20;99.90;;;;;;4996639;28;20626;-84
2022/12/02 01:51:02;;;;;;;11.43;6.37;;;4.20;99.90;;;;;;5005681;28;20207;-85
2022/12/02 01:53:28;;;;;;;8.80;6.80;;;4.10;99.90;;;;;;5006138;28;20215;-87
2022/12/02 01:55:54;;;;;;;12.90;7.87;;;4.10;99.90;;;;;;5015591;28;20313;-85
2022/12/02 01:58:24;;;;;;;6.43;5.93;;;4.10;99.90;;;;;;5021398;28;20242;-86
2022/12/02 02:00:50;;;;;;;6.37;3.47;;;4.10;99.90;;;;;;5006554;28;20242;-84
2022/12/02 02:03:16;;;;;;;10.63;4.27;;;4.10;99.90;;;;;;5006298;28;20195;-84
2022/12/02 02:05:42;;;;;;;6.37;4.27;;;4.10;99.90;;;;;;5006111;28;20193;-86
2022/12/02 02:08:11;;;;;;;5.70;5.27;;;4.10;99.90;;;;;;5006944;28;20573;-88
2022/12/02 02:10:39;;;;;;;5.63;5.23;;;4.10;99.90;;;;;;5006742;28;20227;-84
2022/12/02 02:13:07;;;;;;;7.40;6.70;;;4.10;99.90;;;;;;4988853;28;20227;-92
2022/12/02 02:15:33;;;;;;;4.83;2.87;;;4.10;99.90;;;;;;5005286;28;20223;-89
2022/12/02 02:17:59;;;;;;;8.40;5.07;;;4.10;99.90;;;;;;5007577;28;20187;-86
2022/12/02 02:20:26;;;;;;;10.93;6.57;;;4.10;99.90;;;;;;4988998;28;21068;-85
2022/12/02 02:22:58;;;;;;;6.00;4.97;;;4.10;99.90;;;;;;5004924;28;20223;-85
2022/12/02 02:25:23;;;;;;;4.63;4.03;;;4.10;99.90;;;;;;5012046;28;20230;-86
2022/12/02 02:27:55;;;;;;;7.03;5.87;;;4.00;99.90;;;;;;5008656;28;20227;-87
2022/12/02 02:30:21;;;;;;;5.10;4.67;;;4.00;99.90;;;;;;5002809;28;20234;-91
2022/12/02 02:32:48;;;;;;;6.27;5.10;;;4.00;99.90;;;;;;5001901;28;20250;-86
2022/12/02 02:35:15;;;;;;;8.07;5.70;;;4.00;99.90;;;;;;5002208;28;20276;-86
2022/12/02 02:37:42;;;;;;;20.57;7.43;;;4.00;99.90;;;;;;5011663;28;20226;-90
2022/12/02 02:40:09;;;;;;;5.77;4.77;;;4.00;99.90;;;;;;5005071;28;20227;-88
2022/12/02 02:42:35;;;;;;;6.17;5.43;;;4.00;99.90;;;;;;5036714;28;20266;-86
2022/12/02 02:45:02;;;;;;;11.47;6.10;;;4.00;99.90;;;;;;5005220;28;21052;-88
2022/12/02 02:47:28;;;;;;;3.70;3.40;;;4.00;99.90;;;;;;5006398;28;20254;-86
2022/12/02 02:49:54;;;;;;;8.47;5.47;;;4.00;99.90;;;;;;4992131;28;20751;-87
2022/12/02 02:52:20;;;;;;;11.67;5.87;;;4.00;99.90;;;;;;4992535;28;20223;-87
2022/12/02 02:54:46;;;;;;;14.23;6.30;;;4.00;99.90;;;;;;5008920;28;20218;-84
2022/12/02 02:57:11;;;;;;;5.63;4.80;;;4.00;99.90;;;;;;5001157;28;20245;-87
2022/12/02 02:59:40;;;;;;;4.07;2.90;;;3.90;99.90;;;;;;5001234;28;20187;-85
2022/12/02 03:02:10;;;;;;;4.53;2.87;;;3.90;99.90;;;;;;5009598;28;20223;-86
2022/12/02 03:04:36;;;;;;;10.97;4.10;;;3.90;99.90;;;;;;5009566;28;20552;-84
2022/12/02 03:07:02;;;;;;;3.63;3.13;;;3.80;99.90;;;;;;5016943;28;20739;-85
2022/12/02 03:09:28;;;;;;;3.97;2.90;;;3.80;99.90;;;;;;5008462;28;20219;-87
2022/12/02 03:11:56;;;;;;;3.80;3.37;;;3.70;99.90;;;;;;5009061;28;20234;-86
2022/12/02 03:14:23;;;;;;;4.60;4.27;;;3.70;99.90;;;;;;5008763;28;20545;-88
2022/12/02 03:16:49;;;;;;;9.13;3.93;;;3.70;99.90;;;;;;5009335;28;20221;-88
2022/12/02 03:19:16;;;;;;;7.57;4.30;;;3.60;99.90;;;;;;5008306;28;20215;-86
2022/12/02 03:21:42;;;;;;;4.27;3.77;;;3.70;99.90;;;;;;5007895;28;20231;-85
2022/12/02 03:24:09;;;;;;;10.13;6.23;;;3.70;99.90;;;;;;5007676;28;20246;-89
2022/12/02 03:26:35;;;;;;;6.70;3.27;;;3.70;99.90;;;;;;5017148;28;20187;-85
2022/12/02 03:29:03;;;;;;;7.20;3.77;;;3.70;99.90;;;;;;5008686;28;20219;-84
2022/12/02 03:31:29;;;;;;;6.00;4.67;;;3.70;99.90;;;;;;5016321;28;20241;-84
2022/12/02 03:33:56;;;;;;;6.33;3.27;;;3.70;99.90;;;;;;5008987;28;20246;-86
2022/12/02 03:36:22;;;;;;;5.47;4.93;;;3.70;99.90;;;;;;5008097;28;20560;-86
2022/12/02 03:38:48;;;;;;;10.90;6.37;;;3.70;99.90;;;;;;5009637;28;20195;-83
2022/12/02 03:41:15;;;;;;;3.73;3.27;;;3.70;99.90;;;;;;5007222;28;20274;-85
2022/12/02 03:43:41;;;;;;;4.90;4.27;;;3.70;99.90;;;;;;5000168;28;20231;-83
2022/12/02 03:46:08;;;;;;;8.00;4.20;;;3.60;99.90;;;;;;5014633;28;20302;-86
2022/12/02 03:48:36;;;;;;;14.30;5.60;;;3.60;99.90;;;;;;5008423;28;20215;-89
2022/12/02 03:51:01;;;;;;;8.03;5.30;;;3.60;99.90;;;;;;5007462;28;20310;-84
2022/12/02 03:53:28;;;;;;;6.10;3.13;;;3.60;99.90;;;;;;5008598;28;20298;-85
2022/12/02 03:55:54;;;;;;;8.73;4.33;;;3.60;99.90;;;;;;5008722;28;21008;-85
2022/12/02 03:58:19;;;;;;;3.03;2.17;;;3.60;99.90;;;;;;5008605;28;20735;-86
2022/12/02 04:00:45;;;;;;;16.00;6.37;;;3.60;99.90;;;;;;4990119;28;20231;-86
2022/12/02 04:03:11;;;;;;;2.73;2.53;;;3.50;99.90;;;;;;4991455;28;20195;-84
2022/12/02 04:05:37;;;;;;;5.97;5.00;;;3.50;99.90;;;;;;5024304;28;20301;-84
2022/12/02 04:08:02;;;;;;;4.97;4.47;;;3.50;99.90;;;;;;4999784;28;20223;-86
2022/12/02 04:10:28;;;;;;;7.37;4.80;;;3.50;99.90;;;;;;5017405;28;20242;-84
2022/12/02 04:12:54;;;;;;;3.57;3.37;;;3.50;99.90;;;;;;4998273;28;20215;-88
2022/12/02 04:15:19;;;;;;;17.37;5.03;;;3.50;99.90;;;;;;5015454;28;20226;-86
2022/12/02 04:17:45;;;;;;;2.57;2.37;;;3.50;99.90;;;;;;4990997;28;20198;-86
2022/12/02 04:20:11;;;;;;;5.40;4.70;;;3.50;99.90;;;;;;5007259;28;20230;-86
2022/12/02 04:22:37;;;;;;;10.50;4.97;;;3.50;99.90;;;;;;5008013;28;20229;-87
2022/12/02 04:25:03;;;;;;;4.20;3.77;;;3.50;99.90;;;;;;5008201;28;20223;-86
2022/12/02 04:27:29;;;;;;;7.87;4.17;;;3.50;99.90;;;;;;5006983;28;20254;-85
2022/12/02 04:29:55;;;;;;;4.20;3.53;;;3.60;99.90;;;;;;5006876;28;20206;-85
2022/12/02 04:32:20;;;;;;;5.57;4.13;;;3.60;99.90;;;;;;5007750;28;21247;-86
2022/12/02 04:34:46;;;;;;;11.93;4.13;;;3.60;99.90;;;;;;5006859;28;20215;-84
2022/12/02 04:37:12;;;;;;;4.73;3.73;;;3.60;99.90;;;;;;5007456;28;20215;-88
2022/12/02 04:39:37;;;;;;;3.90;3.67;;;3.60;99.90;;;;;;5007817;28;20223;-87
2022/12/02 04:42:04;;;;;;;5.60;3.67;;;3.70;99.90;;;;;;5015593;28;20246;-88
2022/12/02 04:44:29;;;;;;;5.13;3.63;;;3.70;99.90;;;;;;5008545;28;20191;-88
2022/12/02 04:46:55;;;;;;;5.83;3.80;;;3.70;99.90;;;;;;5006299;28;20815;-88
2022/12/02 04:49:21;;;;;;;5.63;4.80;;;3.70;99.90;;;;;;4999118;28;20238;-86
2022/12/02 04:51:46;;;;;;;4.57;4.27;;;3.70;99.90;;;;;;5007225;28;20253;-86
2022/12/02 04:54:12;;;;;;;4.00;3.63;;;3.70;99.90;;;;;;5015294;28;20543;-87
2022/12/02 04:56:38;;;;;;;5.47;4.93;;;3.70;99.90;;;;;;4990407;28;20191;-85
2022/12/02 04:59:03;;;;;;;12.40;4.50;;;3.70;99.90;;;;;;5006489;28;20254;-85
2022/12/02 05:01:29;;;;;;;5.23;3.97;;;3.70;99.90;;;;;;4996107;28;20752;-85
2022/12/02 05:03:55;;;;;;;7.43;5.03;;;3.70;99.90;;;;;;5006436;28;20223;-86
2022/12/02 05:06:20;;;;;;;10.60;4.07;;;3.70;99.90;;;;;;5038511;28;20235;-89
2022/12/02 05:08:46;;;;;;;2.80;2.50;;;3.70;99.90;;;;;;5006402;28;20219;-86
2022/12/02 05:11:12;;;;;;;3.80;3.47;;;3.70;99.90;;;;;;4989479;28;20231;-88
2022/12/02 05:13:37;;;;;;;6.17;3.70;;;3.70;99.90;;;;;;5007192;28;20215;-85
2022/12/02 05:16:03;;;;;;;7.40;4.30;;;3.70;99.90;;;;;;5022221;28;20219;-85
2022/12/02 05:18:29;;;;;;;11.27;4.77;;;3.70;99.90;;;;;;5007131;28;20219;-86
2022/12/02 05:20:55;;;;;;;8.43;4.53;;;3.60;99.90;;;;;;4996915;28;20249;-86
2022/12/02 05:23:20;;;;;;;7.60;6.60;;;3.70;99.90;;;;;;5014993;28;20227;-88
2022/12/02 05:25:46;;;;;;;7.83;7.10;;;3.60;99.90;;;;;;5013547;28;20227;-85
2022/12/02 05:28:12;;;;;;;18.93;5.13;;;3.60;99.90;;;;;;5005609;28;20342;-86
2022/12/02 05:30:37;;;;;;;7.80;4.27;;;3.70;99.90;;;;;;5006564;28;20231;-86
2022/12/02 05:33:03;;;;;;;5.10;4.07;;;3.70;99.90;;;;;;5039336;28;20191;-85
2022/12/02 05:35:29;;;;;;;4.60;3.53;;;3.70;99.90;;;;;;5038805;28;20707;-87
2022/12/02 05:37:55;;;;;;;12.83;3.27;;;3.70;99.90;;;;;;5013142;28;20223;-83
2022/12/02 05:40:20;;;;;;;6.40;5.10;;;3.70;99.90;;;;;;5006684;28;20751;-90
2022/12/02 05:42:46;;;;;;;8.87;6.07;;;3.70;99.90;;;;;;4997750;28;20662;-83
2022/12/02 05:45:17;;;;;;;11.03;7.33;;;3.60;99.90;;;;;;5015398;28;20203;-85
2022/12/02 05:47:46;;;;;;;4.23;3.87;;;3.60;99.90;;;;;;5007060;28;20559;-87
2022/12/02 05:50:13;;;;;;;4.20;2.43;;;3.50;99.90;;;;;;5006738;28;20226;-86
2022/12/02 05:52:39;;;;;;;6.77;4.50;;;3.40;99.90;;;;;;5006678;28;20977;-89
2022/12/02 05:55:17;;;;;;;8.80;7.50;;;3.30;99.90;;;;;;5012509;28;20670;-89
2022/12/02 05:57:44;;;;;;;5.67;3.83;;;3.20;99.90;;;;;;5021153;28;20273;-85
2022/12/02 06:00:22;;;;;;;11.50;6.90;;;3.10;99.90;;;;;;5006086;28;20199;-85
2022/12/02 06:02:57;;;;;;;4.33;3.60;;;3.10;99.90;;;;;;5006373;28;20205;-85
2022/12/02 06:05:26;;;;;;;5.70;3.37;;;3.00;99.90;;;;;;5006406;28;20806;-87
2022/12/02 06:07:58;;;;;;;7.87;5.80;;;2.90;99.90;;;;;;5004894;28;20250;-89
2022/12/02 06:10:30;;;;;;;8.83;4.57;;;2.80;99.90;;;;;;5021593;28;20638;-87
2022/12/02 06:13:03;;;;;;;4.90;4.53;;;2.70;99.90;;;;;;5005193;28;20307;-85
2022/12/02 06:15:35;;;;;;;3.63;3.33;;;2.70;99.90;;;;;;5006431;28;20676;-85
2022/12/02 06:18:16;;;;;;;4.63;4.07;;;2.70;99.90;;;;;;5004998;28;20195;-86
2022/12/02 06:20:43;;;;;;;6.67;3.90;;;2.80;99.90;;;;;;5007588;28;20665;-88
2022/12/02 06:23:16;;;;;;;3.43;3.13;;;2.80;99.90;;;;;;5007893;28;20234;-86
2022/12/02 06:25:42;;;;;;;8.13;6.13;;;2.90;99.90;;;;;;5008871;28;20222;-91
2022/12/02 06:28:21;;;;;;;6.80;4.67;;;2.90;99.90;;;;;;5017097;28;20226;-87
2022/12/02 06:30:48;;;;;;;5.97;4.17;;;2.90;99.90;;;;;;5017444;28;20676;-88
2022/12/02 06:33:30;;;;;;;6.83;4.87;;;2.90;99.90;;;;;;5009550;28;20287;-86
2022/12/02 06:35:58;;;;;;;8.83;3.63;;;2.80;99.90;;;;;;5018927;28;20179;-92
2022/12/02 06:38:34;;;;;;;3.27;3.00;;;2.80;99.90;;;;;;5010005;28;20574;-89
2022/12/02 06:41:10;;;;;;;6.70;5.37;;;2.80;99.90;;;;;;5005870;28;20231;-89
2022/12/02 06:43:35;;;;;;;6.07;5.23;;;2.90;99.90;;;;;;5009505;28;20242;-90
2022/12/02 06:46:03;;;;;;;5.00;4.57;;;2.90;99.90;;;;;;5010608;28;20219;-87
2022/12/02 06:48:32;;;;;;;4.27;3.97;;;2.90;99.90;;;;;;5000986;28;20303;-91
2022/12/02 06:51:18;;;;;;;4.40;4.00;;;2.90;99.90;;;;;;5008796;28;20206;-89
2022/12/02 06:53:45;;;;;;;5.60;5.23;;;2.90;99.90;;;;;;5010577;28;20214;-85
2022/12/02 06:56:21;;;;;;;6.73;4.50;;;2.90;99.90;;;;;;5008894;28;20227;-88
2022/12/02 06:59:00;;;;;;;5.50;5.03;;;2.90;99.90;;;;;;5010989;28;20215;-88
2022/12/02 07:01:37;;;;;;;8.40;3.47;;;2.90;99.90;;;;;;5010795;28;20774;-87
2022/12/02 07:04:27;;;;;;;5.47;5.03;;;3.00;99.90;;;;;;4995389;28;20219;-86
2022/12/02 07:06:57;;;;;;;10.40;5.13;;;3.00;99.90;;;;;;5010646;28;20222;-88
2022/12/02 07:09:39;;;;;;;5.00;4.60;;;2.90;99.90;;;;;;5010332;28;20234;-89
2022/12/02 07:12:16;;;;;;;4.87;2.47;;;2.80;99.90;;;;;;5011184;28;20239;-88
2022/12/02 07:14:47;;;;;;;3.23;2.37;;;2.70;99.90;;;;;;5011498;28;20205;-88
2022/12/02 07:17:33;;;;;;;3.30;3.10;;;2.60;99.90;;;;;;5011038;28;20715;-90
2022/12/02 07:20:00;;;;;;;5.17;2.10;;;2.70;99.90;;;;;;5009813;28;20227;-91
2022/12/02 07:22:34;;;;;;;5.07;4.33;;;2.70;99.90;;;;;;5025560;28;20226;-89
2022/12/02 07:25:08;;;;;;;5.63;2.90;;;2.70;99.90;;;;;;5010117;28;20227;-91
2022/12/02 07:27:40;;;;;;;7.07;4.73;;;2.80;99.90;;;;;;5017906;28;20817;-90
2022/12/02 07:30:24;;;;;;;8.50;5.30;;;2.90;99.90;;;;;;5012147;28;20269;-87
2022/12/02 07:32:50;;;;;;;5.53;3.43;;;3.00;99.90;;;;;;5045545;28;20999;-88
2022/12/02 07:35:16;;;;;;;7.93;4.53;;;3.10;99.90;;;;;;5011281;28;20246;-88
2022/12/02 07:37:42;;;;;;;5.17;3.77;;;3.20;99.90;;;;;;5009887;28;20701;-89
2022/12/02 07:40:08;;;;;;;11.00;5.47;;;3.30;99.90;;;;;;5018562;28;20314;-88
2022/12/02 07:42:34;;;;;;;6.43;5.93;;;3.30;99.90;;;;;;5010484;28;20238;-90
2022/12/02 07:44:59;;;;;;;6.20;5.67;;;3.40;99.90;;;;;;5003431;28;20210;-88
2022/12/02 07:47:25;;;;;;;9.53;4.60;;;3.40;99.90;;;;;;5030491;28;20226;-89
2022/12/02 07:49:51;;;;;;;6.83;4.40;;;3.50;99.90;;;;;;5040331;28;20214;-88
2022/12/02 07:52:17;;;;;;;3.07;2.70;;;3.60;99.90;;;;;;5047359;28;20234;-88
2022/12/02 07:54:42;;;;;;;6.07;3.90;;;3.70;99.90;;;;;;5047040;28;20214;-87
2022/12/02 07:57:08;;;;;;;4.00;3.60;;;3.80;99.90;;;;;;5032437;28;20680;-87
2022/12/02 07:59:34;;;;;;;1.43;1.13;;;3.90;99.90;;;;;;5031995;28;20186;-86
2022/12/02 08:01:59;;;;;;;4.20;3.67;;;4.00;99.90;;;;;;5031621;28;20548;-88
2022/12/02 08:04:25;;;;;;;3.57;3.27;;;4.20;99.90;;;;;;5037323;28;20218;-88
2022/12/02 08:06:51;;;;;;;7.90;2.80;;;4.20;99.90;;;;;;5033245;28;20275;-89
2022/12/02 08:09:16;;;;;;;3.43;2.77;;;4.30;99.90;;;;;;5019257;28;20201;-88
2022/12/02 08:11:42;;;;;;;2.53;2.33;;;4.20;99.90;;;;;;5040890;28;20979;-87
2022/12/02 08:14:08;;;;;;;1.80;1.67;;;4.20;99.90;;;;;;5034446;28;20766;-86
2022/12/02 08:16:33;;;;;;;0.60;0.60;;;4.20;99.90;;;;;;5023131;28;20217;-86
2022/12/02 08:19:00;;;;;;;5.00;3.67;;;4.30;99.90;;;;;;5033700;28;20306;-86
2022/12/02 08:21:26;;;;;;;4.03;2.00;;;4.20;99.90;;;;;;5030427;28;20228;-88
2022/12/02 08:23:52;;;;;;;4.50;2.13;;;4.20;99.90;;;;;;5019358;28;20187;-88
2022/12/02 08:26:18;;;;;;;2.57;1.87;;;4.30;99.90;;;;;;5020642;28;20569;-90
2022/12/02 08:28:43;;;;;;;5.63;1.23;;;4.30;99.90;;;;;;5031169;28;20223;-95
2022/12/02 08:31:09;;;;;;;1.43;1.33;;;4.40;99.90;;;;;;5049076;28;20218;-96
2022/12/02 08:33:35;;;;;;;3.33;3.03;;;4.40;99.90;;;;;;5053007;28;20215;-89
2022/12/02 08:36:01;;;;;;;3.27;2.97;;;4.50;99.90;;;;;;5017941;28;20198;-86
2022/12/02 08:38:26;;;;;;;12.67;3.87;;;4.60;99.90;;;;;;5023953;28;20707;-90
2022/12/02 08:40:52;;;;;;;2.70;2.50;;;4.80;99.90;;;;;;5023432;28;20222;-88
2022/12/02 08:43:19;;;;;;;7.13;2.67;;;4.90;99.90;;;;;;5038532;28;20722;-92
2022/12/02 08:45:45;;;;;;;9.13;5.03;;;5.00;99.90;;;;;;5023301;28;20226;-88
2022/12/02 08:48:11;;;;;;;3.23;2.50;;;5.00;99.90;;;;;;5024450;28;20189;-90
2022/12/02 08:50:37;;;;;;;4.10;3.70;;;5.10;99.90;;;;;;5039304;28;20223;-89
2022/12/02 08:53:03;;;;;;;1.83;1.73;;;5.10;99.90;;;;;;5024382;28;20266;-90
2022/12/02 08:55:29;;;;;;;3.07;2.43;;;5.00;99.90;;;;;;5022843;28;20325;-90
2022/12/02 08:57:55;;;;;;;5.10;3.23;;;4.90;99.90;;;;;;5026711;28;20221;-90
2022/12/02 09:00:22;;;;;;;4.13;3.80;;;4.90;99.90;;;;;;5036353;28;20237;-86
2022/12/02 09:02:48;;;;;;;12.03;3.50;;;4.80;99.90;;;;;;5023929;28;20229;-88
2022/12/02 09:05:13;;;;;;;10.97;2.03;;;4.80;99.90;;;;;;5024548;28;20249;-88
2022/12/02 09:07:39;;;;;;;2.70;1.43;;;4.70;99.90;;;;;;5025795;28;20233;-88
2022/12/02 09:10:06;;;;;;;2.47;1.27;;;4.70;99.90;;;;;;5042443;28;20222;-87
2022/12/02 09:12:32;;;;;;;8.77;5.93;;;4.70;99.90;;;;;;5024658;28;20225;-91
2022/12/02 09:14:58;;;;;;;2.40;2.27;;;4.60;99.90;;;;;;5026642;28;21008;-90
2022/12/02 09:17:24;;;;;;;2.00;1.40;;;4.50;99.90;;;;;;5045424;28;20232;-88
2022/12/02 09:19:49;;;;;;;5.00;3.20;;;4.40;99.90;;;;;;5041200;28;20519;-88
2022/12/02 09:22:15;;;;;;;3.73;2.33;;;4.30;99.90;;;;;;5041294;28;20226;-89
2022/12/02 09:24:41;;;;;;;13.13;2.53;;;4.20;99.90;;;;;;5026001;28;20222;-90
2022/12/02 09:27:06;;;;;;;1.50;1.40;;;4.00;99.90;;;;;;5015447;28;20204;-90
2022/12/02 09:29:33;;;;;;;1.90;1.80;;;4.00;99.90;;;;;;5023941;28;20198;-87
2022/12/02 09:31:59;;;;;;;3.77;2.07;;;4.00;99.90;;;;;;5024104;28;20234;-89
2022/12/02 09:34:25;;;;;;;2.93;2.70;;;4.00;99.90;;;;;;5023636;28;20706;-90
2022/12/02 09:36:51;;;;;;;1.10;1.10;;;3.90;99.90;;;;;;5032116;28;20222;-88
2022/12/02 09:39:17;;;;;;;2.83;2.07;;;3.90;99.90;;;;;;5024947;28;20281;-90
2022/12/02 09:41:43;;;;;;;2.40;2.30;;;3.90;99.90;;;;;;5032556;28;20234;-88
2022/12/02 09:44:09;;;;;;;5.00;2.63;;;3.80;99.90;;;;;;5027730;28;20333;-87
2022/12/02 09:46:35;;;;;;;1.77;1.67;;;3.80;99.90;;;;;;5042381;28;20288;-87
2022/12/02 09:49:01;;;;;;;3.67;3.47;;;3.80;99.90;;;;;;5026033;28;20227;-88
2022/12/02 09:51:27;;;;;;;2.00;1.87;;;3.90;99.90;;;;;;5032136;28;20234;-90
2022/12/02 09:53:53;;;;;;;1.83;1.73;;;4.10;99.90;;;;;;5023906;28;20186;-88
2022/12/02 09:56:20;;;;;;;4.60;2.10;;;4.20;99.90;;;;;;5039552;28;20237;-89
2022/12/02 09:58:52;;;;;;;1.93;1.83;;;4.20;99.90;;;;;;5027689;28;20214;-86
2022/12/02 10:01:18;;;;;;;3.90;3.60;;;4.10;99.90;;;;;;5034316;28;20222;-86
2022/12/02 10:03:46;;;;;;;3.53;3.23;;;4.10;99.90;;;;;;5033920;28;20218;-88
2022/12/02 10:06:45;;;;;;;2.57;2.47;;;4.10;99.90;;;;;;5043089;28;20236;-85
2022/12/02 10:09:18;;;;;;;2.27;2.07;;;4.20;99.90;;;;;;5027725;28;20316;-90
2022/12/02 10:11:44;;;;;;;4.63;2.13;;;4.20;99.90;;;;;;5033536;28;20543;-89
2022/12/02 10:14:14;;;;;;;5.53;5.03;;;4.20;99.90;;;;;;5033202;28;20711;-87
2022/12/02 10:16:40;;;;;;;6.03;2.03;;;4.20;99.90;;;;;;5031823;28;20615;-89
2022/12/02 10:19:11;;;;;;;3.87;3.50;;;4.20;99.90;;;;;;5033982;28;20218;-88
2022/12/02 10:21:36;;;;;;;5.17;3.80;;;4.20;99.90;;;;;;5034691;28;20672;-89
2022/12/02 10:24:08;;;;;;;6.50;4.70;;;4.30;99.90;;;;;;5035150;28;20190;-88
2022/12/02 10:26:52;;;;;;;1.70;1.60;;;4.20;99.90;;;;;;5037558;28;20201;-90
2022/12/02 10:29:27;;;;;;;1.70;1.60;;;4.20;99.90;;;;;;5016624;28;20215;-90
2022/12/02 10:32:23;;;;;;;3.70;3.40;;;4.10;99.90;;;;;;5020045;28;20226;-88
2022/12/02 10:35:08;;;;;;;3.20;1.97;;;3.90;99.90;;;;;;5032153;28;20222;-92
2022/12/02 10:37:34;;;;;;;2.63;2.43;;;3.90;99.90;;;;;;5031407;28;20214;-89
2022/12/02 10:40:20;;;;;;;2.40;1.70;;;4.10;99.90;;;;;;5034128;28;20218;-90
2022/12/02 10:42:46;;;;;;;2.93;2.20;;;4.10;99.90;;;;;;5040600;28;20233;-94
2022/12/02 10:45:22;;;;;;;5.03;4.63;;;4.10;99.90;;;;;;5045167;28;20195;-95
2022/12/02 10:47:49;;;;;;;3.90;2.73;;;4.20;99.90;;;;;;5044817;28;20198;-88
2022/12/02 10:50:20;;;;;;;5.33;2.63;;;4.10;99.90;;;;;;5033050;28;20276;-92
2022/12/02 10:52:56;;;;;;;3.43;3.23;;;4.10;99.90;;;;;;5033766;28;20348;-90
2022/12/02 10:55:23;;;;;;;7.77;3.87;;;4.10;99.90;;;;;;5023757;28;20261;-90
2022/12/02 10:57:49;;;;;;;2.47;2.33;;;4.00;99.90;;;;;;5027753;28;21047;-87
2022/12/02 11:00:24;;;;;;;2.53;2.37;;;4.00;99.90;;;;;;5030739;28;20225;-93
2022/12/02 11:02:55;;;;;;;1.93;1.83;;;4.00;99.90;;;;;;5031291;28;20977;-90
2022/12/02 11:05:30;;;;;;;2.83;2.30;;;4.10;99.90;;;;;;5031837;28;20214;-91
2022/12/02 11:08:02;;;;;;;2.80;2.53;;;4.20;99.90;;;;;;5031996;28;20218;-90
2022/12/02 11:10:40;;;;;;;3.33;3.13;;;4.20;99.90;;;;;;5046435;28;20715;-91
2022/12/02 11:13:12;;;;;;;2.57;2.37;;;4.20;99.90;;;;;;5031369;28;20660;-90
2022/12/02 11:15:39;;;;;;;3.93;3.20;;;4.30;99.90;;;;;;5033645;28;20249;-91
2022/12/02 11:18:10;;;;;;;3.60;3.27;;;4.20;99.90;;;;;;5032618;28;20213;-90
2022/12/02 11:20:43;;;;;;;8.23;2.60;;;4.30;99.90;;;;;;5034545;28;20191;-92
2022/12/02 11:23:19;;;;;;;7.43;3.37;;;4.30;99.90;;;;;;5033222;28;20214;-92
2022/12/02 11:25:48;;;;;;;3.23;2.93;;;4.30;99.90;;;;;;5032205;28;20224;-92
2022/12/02 11:28:16;;;;;;;5.73;4.53;;;4.20;99.90;;;;;;5028751;28;20226;-90
2022/12/02 11:30:44;;;;;;;5.03;2.67;;;4.10;99.90;;;;;;5033065;28;20238;-93
2022/12/02 11:33:11;;;;;;;5.40;2.67;;;4.00;99.90;;;;;;5038302;28;21108;-92
2022/12/02 11:36:10;;;;;;;4.17;2.50;;;4.00;99.90;;;;;;5033917;28;20186;-90
2022/12/02 11:38:57;;;;;;;4.87;4.47;;;3.90;99.90;;;;;;5030087;28;20286;-91
2022/12/02 11:41:47;;;;;;;4.20;3.03;;;3.90;99.90;;;;;;5013015;28;20223;-90
2022/12/02 11:44:28;;;;;;;3.23;2.70;;;3.90;99.90;;;;;;5013240;28;20227;-92
2022/12/02 11:46:59;;;;;;;4.40;3.90;;;3.90;99.90;;;;;;5026428;28;20270;-91
2022/12/02 11:49:32;;;;;;;6.23;2.87;;;3.90;99.90;;;;;;5031989;28;20289;-93
2022/12/02 11:52:03;;;;;;;5.10;4.17;;;3.90;99.90;;;;;;5033232;28;20653;-92
2022/12/02 11:54:29;;;;;;;4.87;4.33;;;4.10;99.90;;;;;;5034128;28;20214;-90
2022/12/02 11:56:56;;;;;;;9.60;2.70;;;4.10;99.90;;;;;;5000385;28;20198;-91
2022/12/02 11:59:28;;;;;;;3.73;3.43;;;4.10;99.90;;;;;;5025385;28;20218;-93
2022/12/02 12:02:15;;;;;;;3.73;3.47;;;4.20;99.90;;;;;;5033469;28;20210;-92
2022/12/02 12:04:42;;;;;;;7.27;4.67;;;4.30;99.90;;;;;;5032739;28;20278;-89
2022/12/02 12:07:08;;;;;;;4.67;4.27;;;4.30;99.90;;;;;;5032318;28;20319;-89
2022/12/02 12:09:34;;;;;;;7.27;3.30;;;4.40;99.90;;;;;;5032137;28;20608;-91
2022/12/02 12:12:18;;;;;;;8.00;4.13;;;4.30;99.90;;;;;;5032473;28;20202;-87
2022/12/02 12:15:01;;;;;;;4.53;4.13;;;4.50;99.90;;;;;;5044151;28;20292;-91
2022/12/02 12:17:31;;;;;;;5.80;4.67;;;4.50;99.90;;;;;;5032520;28;20207;-90
2022/12/02 12:19:57;;;;;;;8.10;2.93;;;4.60;99.90;;;;;;5031651;28;20680;-90
2022/12/02 12:22:28;;;;;;;6.57;4.03;;;4.50;99.90;;;;;;5023913;28;20271;-90
2022/12/02 12:25:14;;;;;;;2.43;2.23;;;4.50;99.90;;;;;;5030393;28;20229;-89
2022/12/02 12:27:40;;;;;;;6.70;4.73;;;4.50;99.90;;;;;;5021228;28;20226;-90
2022/12/02 12:30:06;;;;;;;5.33;3.57;;;4.40;99.90;;;;;;5046458;28;21075;-91
2022/12/02 12:32:32;;;;;;;2.97;1.83;;;4.40;99.90;;;;;;5021517;28;20186;-89
2022/12/02 12:34:58;;;;;;;5.13;2.83;;;4.40;99.90;;;;;;5038219;28;20248;-90
2022/12/02 12:37:23;;;;;;;3.57;3.27;;;4.40;99.90;;;;;;5028909;28;20256;-87
2022/12/02 12:39:49;;;;;;;4.33;4.03;;;4.30;99.90;;;;;;5028620;28;20224;-89
2022/12/02 12:42:15;;;;;;;4.17;3.63;;;4.40;99.90;;;;;;5021836;28;20707;-89
2022/12/02 12:44:41;;;;;;;4.50;3.80;;;4.40;99.90;;;;;;5011756;28;20213;-90
2022/12/02 12:47:06;;;;;;;2.70;2.43;;;4.40;99.90;;;;;;5019632;28;20218;-89
2022/12/02 12:49:33;;;;;;;4.73;4.30;;;4.50;99.90;;;;;;5025919;28;20668;-93
2022/12/02 12:52:00;;;;;;;1.87;1.77;;;4.40;99.90;;;;;;5031986;28;20284;-90
2022/12/02 12:54:26;;;;;;;3.67;3.33;;;4.40;99.90;;;;;;5027002;28;20337;-92
2022/12/02 12:56:51;;;;;;;2.27;2.13;;;4.40;99.90;;;;;;5027382;28;20195;-88
2022/12/02 12:59:17;;;;;;;4.07;1.83;;;4.40;99.90;;;;;;5045032;28;20671;-91
2022/12/02 13:01:43;;;;;;;4.17;3.77;;;4.50;99.90;;;;;;5030939;28;20268;-93
2022/12/02 13:04:09;;;;;;;2.97;2.10;;;4.60;99.90;;;;;;5043700;28;20210;-94
2022/12/02 13:06:38;;;;;;;2.80;2.13;;;4.50;99.90;;;;;;5030830;28;20222;-90